createdAt,value
2019-01-21T22:24:21.615Z,101296.64
2019-01-21T22:26:47.465Z,101292.97
2019-01-21T22:29:13.521Z,101292.39
2019-01-21T22:31:39.650Z,101290.60
2019-01-21T22:34:05.721Z,101283.50
2019-01-21T22:36:31.704Z,101279.53
2019-01-21T22:38:57.796Z,101279.97
2019-01-21T22:41:23.835Z,101276.48
2019-01-21T22:43:49.902Z,101272.03
2019-01-21T22:46:16.024Z,101272.31
2019-01-21T22:48:42.015Z,101273.42
2019-01-21T22:51:08.081Z,101268.89
2019-01-21T22:53:34.549Z,101271.94
2019-01-21T22:56:00.543Z,101272.31
2019-01-21T22:58:26.612Z,101271.46
2019-01-21T23:00:52.648Z,101262.97
2019-01-21T23:03:18.623Z,101258.94
2019-01-21T23:05:44.627Z,101258.95
2019-01-21T23:08:10.631Z,101248.83
2019-01-21T23:10:36.905Z,101251.70
2019-01-21T23:13:02.894Z,101251.68
2019-01-21T23:15:28.968Z,101245.63
2019-01-21T23:17:55.036Z,101235.26
2019-01-21T23:20:20.999Z,101235.17
2019-01-21T23:22:49.234Z,101229.38
2019-01-21T23:25:14.887Z,101229.21
2019-01-21T23:27:40.967Z,101231.76
2019-01-21T23:30:07.035Z,101228.69
2019-01-21T23:32:33.091Z,101224.56
2019-01-21T23:34:59.075Z,101223.64
2019-01-21T23:37:25.072Z,101216.45
2019-01-21T23:39:51.059Z,101209.42
2019-01-21T23:42:17.197Z,101205.86
2019-01-21T23:44:43.650Z,101201.81
2019-01-21T23:47:09.622Z,101193.73
2019-01-21T23:49:35.809Z,101191.70
2019-01-21T23:52:01.786Z,101182.64
2019-01-21T23:54:27.976Z,101186.01
2019-01-21T23:56:54.024Z,101184.47
2019-01-21T23:59:20.001Z,101178.27
